Latest Weather Observations for Browse Island

IDW60801

Issued at 2:35 pm WST Sunday 26 October 2014 (issued every 30 minutes, with the page automatically refreshed every 10 minutes)

About weather observations | Map of weather stations | Latest weather observations for WA | Other Formats
Station Details ID: 200784 Name: BROWSE ISLAND Lat: -14.11 Lon: 123.55 Height: 3.7 m
Data from the previous 72 hours. | See also: Recent months for locations in Western Australia
Date/Time
WST
Temp
°C
App
Temp
°C
Dew
Point
Rel
Hum
%
Delta-T
°C
Wind Press
QNH
hPa
Press
MSL
hPa
Rain
since 9 am
mm
Dir
 
Spd
km/h
Gust
km/h
Spd
kts
Gust
kts
26/02:30pm 29.0 - - - - NW 20 20 11 11 1010.0 - -
26/02:00pm 28.8 - - - - NNW 19 20 10 11 1010.0 1010.8 -
26/01:30pm 29.0 - - - - NW 19 - 10 - 1011.0 - -
26/01:00pm 28.9 - - - - NW 15 - 8 - 1011.0 1011.6 -
26/12:30pm 29.0 - - - - NW 15 - 8 - 1012.0 - -
26/12:00pm 28.6 - - - - NW 17 - 9 - 1012.0 1012.2 -
26/11:30am 29.0 - - - - W 19 - 10 - 1012.0 - -
26/11:00am 28.5 - - - - W 20 - 11 - 1012.0 1012.7 -
26/10:30am 29.0 - - - - W 22 22 12 12 1013.0 - -
26/10:00am 28.1 - - - - W 20 - 11 - 1013.0 1013.4 -
26/09:30am 28.0 - - - - W 17 - 9 - 1014.0 - -
26/09:00am 28.3 - - - - WNW 15 - 8 - 1014.0 1014.1 -
26/08:30am 28.0 - - - - W 19 - 10 - 1014.0 - -
26/08:00am 28.5 - - - - WNW 17 - 9 - 1014.0 1014.1 -
26/07:30am 28.0 - - - - WNW 19 - 10 - 1014.0 - -
26/07:00am 28.1 - - - - NW 11 - 6 - 1014.0 1014.1 -
26/06:30am 28.0 - - - - NNW 9 - 5 - 1014.0 - -
26/06:00am 28.0 - - - - NW 11 13 6 7 1013.0 1013.5 -
26/05:30am 28.0 - - - - NW 13 - 7 - 1013.0 - -
26/05:00am 28.0 - - - - WNW 15 - 8 - 1012.0 1012.7 -
26/04:30am 28.0 - - - - WNW 13 - 7 - 1012.0 - -
26/04:00am 28.0 - - - - NW 15 - 8 - 1012.0 1012.1 -
26/03:30am 28.0 - - - - NW 17 - 9 - 1012.0 - -
26/03:00am 28.1 - - - - NW 17 - 9 - 1011.0 1011.8 -
26/02:30am 28.0 - - - - NW 17 - 9 - 1011.0 - -
26/02:00am 28.2 - - - - NW 19 - 10 - 1011.0 1011.6 -
26/01:30am 28.0 - - - - NW 17 - 9 - 1011.0 - -
26/01:00am 28.3 - - - - NW 19 - 10 - 1012.0 1012.0 -
26/12:30am 28.0 - - - - NW 20 - 11 - 1012.0 - -
26/12:00am 28.5 - - - - WNW 19 - 10 - 1012.0 1012.4 -
 
Date/Time
WST
Temp
°C
App
Temp
°C
Dew
Point
Rel
Hum
%
Delta-T
°C
Wind Press
QNH
hPa
Press
MSL
hPa
Rain
since 9 am
mm
Dir
 
Spd
km/h
Gust
km/h
Spd
kts
Gust
kts
25/11:30pm 29.0 - - - - NW 20 - 11 - 1012.0 - -
25/11:00pm 28.6 - - - - WNW 20 - 11 - 1012.0 1012.8 -
25/10:30pm 29.0 - - - - WNW 17 - 9 - 1013.0 - -
25/10:00pm 28.7 - - - - WNW 19 - 10 - 1013.0 1013.8 -
25/09:30pm 29.0 - - - - WNW 15 - 8 - 1014.0 - -
25/09:00pm 28.8 - - - - WNW 15 - 8 - 1014.0 1014.1 -
25/08:30pm 29.0 - - - - WNW 17 - 9 - 1013.0 - -
25/08:00pm 28.9 - - - - WNW 15 - 8 - 1013.0 1013.6 -
25/07:30pm 29.0 - - - - WNW 15 - 8 - 1013.0 - -
25/07:00pm 29.0 - - - - WNW 11 - 6 - 1013.0 1013.6 -
25/06:30pm 29.0 - - - - WNW 13 - 7 - 1013.0 - -
25/06:00pm 29.1 - - - - W 13 - 7 - 1013.0 1013.1 -
25/05:30pm 29.0 - - - - W 15 - 8 - 1012.0 - -
25/05:00pm 29.3 - - - - W 15 - 8 - 1012.0 1012.5 -
25/04:30pm 29.0 - - - - W 15 - 8 - 1012.0 - -
25/04:00pm 29.3 - - - - W 17 - 9 - 1011.0 1011.8 -
25/03:30pm 30.0 - - - - WNW 15 - 8 - 1012.0 - -
25/03:00pm 30.0 - - - - WNW 11 - 6 - 1012.0 1012.2 -
25/02:30pm 30.0 - - - - W 11 - 6 - 1012.0 - -
25/02:00pm 29.6 - - - - W 11 - 6 - 1012.0 1012.7 -
25/01:30pm 30.0 - - - - W 11 - 6 - 1012.0 - -
25/01:00pm 30.1 - - - - WSW 11 - 6 - 1013.0 1013.0 -
25/12:30pm 29.0 - - - - SW 11 - 6 - 1013.0 - -
25/12:00pm 29.1 - - - - SSW 11 - 6 - 1014.0 1014.0 -
25/11:30am 29.0 - - - - SW 11 - 6 - 1014.0 - -
25/11:00am 29.0 - - - - SW 9 - 5 - 1014.0 1014.5 -
25/10:30am 30.0 - - - - SW 7 - 4 - 1015.0 - -
25/10:00am 28.8 - - - - WSW 9 - 5 - 1015.0 1015.0 -
25/09:30am 29.0 - - - - WSW 9 - 5 - 1015.0 - -
25/09:00am 28.9 - - - - WSW 9 - 5 - 1015.0 1015.2 -
25/08:30am 29.0 - - - - WSW 6 - 3 - 1015.0 - -
25/08:00am 28.5 - - - - SW 9 - 5 - 1015.0 1015.4 -
25/07:30am 28.0 - - - - WSW 7 - 4 - 1015.0 - -
25/07:00am 28.2 - - - - W 6 - 3 - 1014.0 1014.8 -
25/06:30am 28.0 - - - - WSW 7 - 4 - 1014.0 - -
25/06:00am 27.9 - - - - WSW 7 - 4 - 1014.0 1014.1 -
25/05:30am 28.0 - - - - W 9 - 5 - 1013.0 - -
25/05:00am 28.2 - - - - WSW 9 - 5 - 1013.0 1013.6 -
25/04:30am 28.0 - - - - WSW 9 - 5 - 1013.0 - -
25/04:00am 28.1 - - - - WSW 11 - 6 - 1013.0 1012.9 -
25/03:30am 28.0 - - - - WSW 9 - 5 - 1012.0 - -
25/03:00am 28.0 - - - - WSW 11 - 6 - 1012.0 1012.5 -
25/02:30am 28.0 - - - - SW 6 - 3 - 1012.0 - -
25/02:00am 28.1 - - - - W 6 - 3 - 1012.0 1012.4 -
25/01:30am 28.0 - - - - WNW 7 - 4 - 1012.0 - -
25/01:00am 28.1 - - - - W 6 - 3 - 1012.0 1012.5 -
25/12:30am 28.0 - - - - WNW 2 - 1 - 1012.0 - -
25/12:00am 28.1 - - - - CALM 0 - 0 - 1013.0 1013.1 -
 
Date/Time
WST
Temp
°C
App
Temp
°C
Dew
Point
Rel
Hum
%
Delta-T
°C
Wind Press
QNH
hPa
Press
MSL
hPa
Rain
since 9 am
mm
Dir
 
Spd
km/h
Gust
km/h
Spd
kts
Gust
kts
24/11:30pm 28.0 - - - - WNW 4 - 2 - 1013.0 - -
24/11:00pm 28.4 - - - - WNW 7 - 4 - 1013.0 1013.4 -
24/10:30pm 28.0 - - - - NW 9 - 5 - 1013.0 - -
24/10:00pm 28.5 - - - - W 11 - 6 - 1013.0 1013.5 -
24/09:30pm 29.0 - - - - WNW 9 - 5 - 1013.0 - -
24/09:00pm 28.5 - - - - W 7 - 4 - 1013.0 1013.3 -
24/08:30pm 29.0 - - - - WNW 9 - 5 - 1013.0 - -
24/08:00pm 28.6 - - - - WNW 11 - 6 - 1012.0 1012.6 -
24/07:30pm 29.0 - - - - WNW 11 - 6 - 1012.0 - -
24/07:00pm 28.5 - - - - WNW 13 - 7 - 1012.0 1012.0 -
24/06:30pm 29.0 - - - - NW 15 - 8 - 1011.0 - -
24/06:00pm 28.5 - - - - NNW 15 - 8 - 1011.0 1011.4 -
24/05:30pm 29.0 - - - - NNW 19 - 10 - 1011.0 - -
24/05:00pm 28.8 - - - - NNW 17 - 9 - 1011.0 1010.9 -
24/04:30pm 29.0 - - - - NNW 15 - 8 - 1011.0 - -
24/04:00pm 29.8 - - - - NW 11 - 6 - 1010.0 1010.7 -
24/03:30pm 30.0 - - - - NW 11 - 6 - 1011.0 - -
24/03:00pm 29.8 - - - - NW 11 - 6 - 1011.0 1011.1 -
24/02:30pm 30.0 - - - - NNW 11 - 6 - 1011.0 - -
24/02:00pm 29.7 - - - - NNW 11 - 6 - 1011.0 1011.5 -
24/01:30pm 30.0 - - - - NNW 11 - 6 - 1011.0 - -
24/01:00pm 30.3 - - - - NW 9 - 5 - 1012.0 1012.2 -
24/12:30pm 30.0 - - - - N 9 - 5 - 1012.0 - -
24/12:00pm 30.1 - - - - NNW 9 - 5 - 1012.0 1012.7 -
24/11:30am 30.0 - - - - N 11 - 6 - 1013.0 - -
24/11:00am 30.1 - - - - N 11 - 6 - 1013.0 1013.1 -
24/10:30am 29.0 - - - - N 11 - 6 - 1013.0 - -
24/10:00am 29.3 - - - - NNW 13 - 7 - 1013.0 1013.2 -
24/09:30am 29.0 - - - - N 11 - 6 - 1013.0 - -
24/09:00am 29.3 - - - - N 11 - 6 - 1013.0 1013.5 -
24/08:30am 29.0 - - - - N 13 - 7 - 1013.0 - -
24/08:00am 28.5 - - - - N 15 - 8 - 1013.0 1013.5 -
24/07:30am 28.0 - - - - N 17 - 9 - 1013.0 - -
24/07:00am 27.9 - - - - N 15 - 8 - 1013.0 1012.9 -
24/06:30am 28.0 - - - - NNW 15 - 8 - 1012.0 - -
24/06:00am 27.5 - - - - NNW 13 - 7 - 1012.0 1012.4 -
24/05:30am 28.0 - - - - NNW 13 - 7 - 1012.0 - -
24/05:00am 27.5 - - - - NNW 13 - 7 - 1012.0 1012.0 -
24/04:30am 28.0 - - - - NNW 11 - 6 - 1011.0 - -
24/04:00am 27.6 - - - - NNW 13 - 7 - 1011.0 1011.5 -
24/03:30am 28.0 - - - - NNW 9 - 5 - 1011.0 - -
24/03:00am 27.7 - - - - NW 7 - 4 - 1011.0 1011.4 -
24/02:30am 28.0 - - - - NW 9 - 5 - 1011.0 - -
24/02:00am 27.8 - - - - NW 7 - 4 - 1011.0 1011.5 -
24/01:30am 28.0 - - - - N 7 - 4 - 1011.0 - -
24/01:00am 27.8 - - - - NW 9 - 5 - 1012.0 1011.9 -
24/12:30am 28.0 - - - - NW 7 - 4 - 1012.0 - -
24/12:00am 27.9 - - - - NNW 9 - 5 - 1012.0 1012.5 -
 
Date/Time
WST
Temp
°C
App
Temp
°C
Dew
Point
Rel
Hum
%
Delta-T
°C
Wind Press
QNH
hPa
Press
MSL
hPa
Rain
since 9 am
mm
Dir
 
Spd
km/h
Gust
km/h
Spd
kts
Gust
kts
23/11:30pm 28.0 - - - - NNW 11 - 6 - 1012.0 - -
23/11:00pm 28.1 - - - - NNW 9 - 5 - 1013.0 1013.1 -
23/10:30pm 28.0 - - - - WNW 13 - 7 - 1013.0 - -
23/10:00pm 28.3 - - - - WNW 11 - 6 - 1013.0 1013.5 -
23/09:30pm 28.0 - - - - W 9 - 5 - 1013.0 - -
23/09:00pm 28.4 - - - - WNW 9 - 5 - 1013.0 1013.5 -
23/08:30pm 28.0 - - - - W 13 - 7 - 1013.0 - -
23/08:00pm 28.6 - - - - WNW 15 - 8 - 1013.0 1012.9 -
23/07:30pm 29.0 - - - - WNW 13 - 7 - 1012.0 - -
23/07:00pm 28.6 - - - - WNW 11 - 6 - 1012.0 1012.6 -
23/06:30pm 29.0 - - - - W 13 - 7 - 1012.0 - -
23/06:00pm 28.7 - - - - W 13 - 7 - 1011.0 1011.8 -
23/05:30pm 29.0 - - - - W 15 - 8 - 1011.0 - -
23/05:00pm 28.8 - - - - WNW 13 - 7 - 1011.0 1011.0 -
23/04:30pm 29.0 - - - - NW 13 - 7 - 1011.0 - -
23/04:00pm 29.2 - - - - NNW 13 - 7 - 1010.0 1010.8 -
23/03:30pm 29.0 - - - - NNW 13 - 7 - 1010.0 - -
23/03:00pm 29.7 - - - - NNW 11 - 6 - 1011.0 1011.0 -

Other Formats:

Comma delimited format used in spreadsheet applications
http://www.bom.gov.au/fwo/IDW60801/IDW60801.94103.axf

JavaScript Object Notation format (JSON) in row-major order
http://www.bom.gov.au/fwo/IDW60801/IDW60801.94103.json